Time;durP1;ratioP1;P1;durP2;ratioP2;P2;SDS_P1;SDS_P2;PMS_P1;PMS_P2;Temp;Humidity;BMP_temperature;BMP_pressure;BME280_temperature;BME280_humidity;BME280_pressure;Samples;Min_cycle;Max_cycle;Signal;HPM_P1;HPM_P2
2022/01/11 00:01:31;;;;;;;55.38;24.08;;;;;;;-0.87;100.00;102875.22;4935183;29;20039;-85
2022/01/11 00:03:57;;;;;;;52.85;22.08;;;;;;;-0.78;100.00;102900.47;4936240;29;20448;-85
2022/01/11 00:09:18;;;;;;;57.15;23.45;;;;;;;-0.87;100.00;102909.84;4936230;29;20047;-85
2022/01/11 00:11:45;;;;;;;54.92;23.80;;;;;;;-1.01;100.00;102899.13;4966774;28;20448;-85
2022/01/11 00:14:10;;;;;;;65.78;24.73;;;;;;;-1.33;100.00;102860.09;4934860;29;20508;-85
2022/01/11 00:16:36;;;;;;;68.90;23.85;;;;;;;-0.88;100.00;102940.09;4919139;29;20114;-85
2022/01/11 00:19:07;;;;;;;56.95;25.80;;;;;;;-0.93;100.00;102932.38;4934974;29;20155;-84
2022/01/11 00:21:44;;;;;;;83.20;25.35;;;;;;;-1.21;100.00;102893.16;4934899;29;20404;-85
2022/01/11 00:26:58;;;;;;;65.30;26.48;;;;;;;-1.07;100.00;102913.66;4935977;29;20567;-85
2022/01/11 00:29:23;;;;;;;58.25;25.27;;;;;;;-1.11;100.00;102898.78;4934343;29;20040;-84
2022/01/11 00:31:50;;;;;;;57.78;26.13;;;;;;;-1.16;100.00;102882.22;4934489;29;20404;-84
2022/01/11 00:34:18;;;;;;;60.63;26.48;;;;;;;-1.19;100.00;102869.09;4918888;29;20059;-85
2022/01/11 00:36:43;;;;;;;68.30;29.33;;;;;;;-0.99;100.00;102914.09;4934623;29;20448;-85
2022/01/11 00:39:11;;;;;;;56.85;27.60;;;;;;;-0.85;100.00;102912.44;4934898;29;20027;-85
2022/01/11 00:41:38;;;;;;;56.58;28.02;;;;;;;-1.15;100.00;102838.63;4934519;29;20574;-85
2022/01/11 00:44:07;;;;;;;59.55;27.30;;;;;;;-0.74;100.00;102904.63;4935783;29;20476;-85
2022/01/11 00:46:34;;;;;;;62.85;27.67;;;;;;;-0.52;100.00;102920.22;4934011;29;20083;-84
2022/01/11 00:48:59;;;;;;;63.58;27.85;;;;;;;-0.57;100.00;102911.66;4934094;29;20039;-85
2022/01/11 00:51:25;;;;;;;57.58;26.98;;;;;;;-0.79;100.00;102869.41;4934394;29;20039;-84
2022/01/11 00:53:50;;;;;;;58.90;27.55;;;;;;;-0.71;100.00;102883.13;4934178;29;20020;-85
2022/01/11 00:56:18;;;;;;;59.35;27.27;;;;;;;-0.63;100.00;102894.19;4935638;29;20110;-85
2022/01/11 00:58:44;;;;;;;58.03;27.35;;;;;;;-0.54;100.00;102904.31;4966189;28;20381;-85
2022/01/11 01:01:09;;;;;;;59.38;27.50;;;;;;;-0.69;100.00;102885.69;4949076;28;20051;-85
2022/01/11 01:03:36;;;;;;;56.80;26.73;;;;;;;-0.54;100.00;102916.78;4935614;29;20460;-85
2022/01/11 01:06:02;;;;;;;59.40;26.58;;;;;;;-0.92;100.00;102859.47;4934067;29;20494;-85
2022/01/11 01:08:28;;;;;;;62.00;28.08;;;;;;;-0.73;100.00;102890.38;4934151;29;20048;-85
2022/01/11 01:10:54;;;;;;;58.13;27.27;;;;;;;-0.66;100.00;102905.06;4934107;29;20038;-84
2022/01/11 01:13:22;;;;;;;66.00;28.38;;;;;;;-1.13;100.00;102839.41;4933927;29;20090;-85
2022/01/11 01:15:49;;;;;;;63.05;28.33;;;;;;;-0.68;100.00;102906.09;4934161;29;20035;-84
2022/01/11 01:18:21;;;;;;;63.88;28.73;;;;;;;-0.95;100.00;102848.13;4934058;29;20035;-84
2022/01/11 01:20:47;;;;;;;61.88;28.30;;;;;;;-0.72;100.00;102889.44;4935421;29;20091;-85
2022/01/11 01:23:14;;;;;;;59.92;27.63;;;;;;;-0.43;100.00;102937.47;4933624;29;20430;-85
2022/01/11 01:25:44;;;;;;;64.63;29.00;;;;;;;-0.45;100.00;102929.56;4934071;29;20040;-85
2022/01/11 01:28:09;;;;;;;65.55;29.85;;;;;;;-0.53;100.00;102907.84;4918081;29;20035;-85
2022/01/11 01:30:35;;;;;;;60.08;27.98;;;;;;;-0.37;100.00;102926.44;4934045;29;20032;-85
2022/01/11 01:33:01;;;;;;;64.90;29.27;;;;;;;-0.41;100.00;102924.94;4933850;29;20035;-85
2022/01/11 01:35:33;;;;;;;64.78;28.33;;;;;;;-0.90;100.00;102843.38;4934153;29;20043;-85
2022/01/11 01:37:58;;;;;;;65.00;28.83;;;;;;;-0.72;100.00;102876.94;4935227;29;20031;-85
2022/01/11 01:40:24;;;;;;;64.13;29.38;;;;;;;-0.43;100.00;102933.03;4933551;29;20378;-85
2022/01/11 01:42:51;;;;;;;61.88;28.35;;;;;;;-0.87;100.00;102851.22;4917797;29;20082;-85
2022/01/11 01:45:19;;;;;;;65.22;28.77;;;;;;;-0.33;100.00;102937.78;4929369;29;20079;-85
2022/01/11 01:47:44;;;;;;;58.67;27.52;;;;;;;-0.51;100.00;102899.75;4934665;29;20441;-85
2022/01/11 01:50:11;;;;;;;64.50;28.50;;;;;;;-0.56;100.00;102902.69;4965509;28;20036;-85
2022/01/11 01:52:36;;;;;;;59.78;28.17;;;;;;;-0.57;100.00;102900.97;4934832;29;20064;-85
2022/01/11 01:55:06;;;;;;;65.00;29.13;;;;;;;-0.82;100.00;102853.59;4933724;29;20476;-85
2022/01/11 01:57:35;;;;;;;63.03;28.15;;;;;;;-0.82;100.00;102845.59;4933069;29;20038;-85
2022/01/11 02:00:11;;;;;;;63.15;28.80;;;;;;;-0.27;100.00;102935.59;4949536;28;20091;-86
2022/01/11 02:02:36;;;;;;;61.00;27.23;;;;;;;-0.72;100.00;102849.44;4933882;29;20066;-85
2022/01/11 02:05:06;;;;;;;56.47;27.13;;;;;;;-0.70;100.00;102860.84;4933811;29;20070;-85
2022/01/11 02:07:35;;;;;;;55.75;26.13;;;;;;;-0.28;100.00;102931.25;4935172;29;20059;-85
2022/01/11 02:10:02;;;;;;;58.00;26.77;;;;;;;-0.41;100.00;102914.25;4933838;29;20396;-85
2022/01/11 02:12:28;;;;;;;58.55;26.60;;;;;;;-0.24;100.00;102948.75;4936098;29;20059;-85
2022/01/11 02:14:54;;;;;;;57.65;26.67;;;;;;;-0.65;100.00;102892.56;4937902;29;20042;-85
2022/01/11 02:17:19;;;;;;;55.22;26.15;;;;;;;-0.52;100.00;102927.38;4921186;29;20370;-85
2022/01/11 02:19:45;;;;;;;53.78;25.30;;;;;;;-0.71;100.00;102904.44;4936856;29;20032;-85
2022/01/11 02:22:11;;;;;;;58.20;26.45;;;;;;;-0.50;100.00;102950.34;4938170;29;20505;-85
2022/01/11 02:24:36;;;;;;;52.67;24.75;;;;;;;-0.84;100.00;102909.66;4936804;29;20040;-85
2022/01/11 02:27:05;;;;;;;53.92;25.58;;;;;;;-0.92;100.00;102915.41;4936875;29;20118;-85
2022/01/11 02:29:32;;;;;;;54.92;25.58;;;;;;;-0.89;100.00;102936.59;4936883;29;20094;-85
2022/01/11 02:31:57;;;;;;;54.63;24.83;;;;;;;-0.93;100.00;102940.38;4937492;29;20073;-85
2022/01/11 02:34:25;;;;;;;55.25;26.05;;;;;;;-0.96;100.00;102943.22;4920905;29;20031;-85
2022/01/11 02:36:50;;;;;;;54.55;26.00;;;;;;;-1.10;100.00;102905.84;4937113;29;20441;-85
2022/01/11 02:39:16;;;;;;;57.80;26.35;;;;;;;-0.74;100.00;102963.28;4936519;29;20048;-85
2022/01/11 02:41:53;;;;;;;60.65;27.13;;;;;;;-1.06;100.00;102916.25;4936541;29;20031;-85
2022/01/11 02:44:20;;;;;;;57.72;27.33;;;;;;;-0.79;100.00;102968.03;4921193;29;20165;-85
2022/01/11 02:46:45;;;;;;;59.60;27.48;;;;;;;-0.81;100.00;102957.47;4937550;29;20067;-85
2022/01/11 02:49:11;;;;;;;59.30;27.17;;;;;;;-0.66;100.00;102984.19;4920085;29;20067;-85
2022/01/11 02:51:36;;;;;;;59.40;26.90;;;;;;;-0.64;100.00;102980.47;4920954;29;20169;-85
2022/01/11 02:54:04;;;;;;;61.08;27.00;;;;;;;-0.70;100.00;102991.50;4920295;29;20030;-84
2022/01/11 02:56:30;;;;;;;58.92;27.60;;;;;;;-1.01;100.00;102937.28;4936374;29;20043;-85
2022/01/11 02:58:56;;;;;;;61.53;27.60;;;;;;;-0.93;100.00;102934.16;4936179;29;20036;-84
2022/01/11 03:01:22;;;;;;;60.80;27.58;;;;;;;-1.12;100.00;102919.25;4968638;28;20044;-84
2022/01/11 03:03:47;;;;;;;60.47;28.63;;;;;;;-1.15;100.00;102911.44;4920138;29;20068;-85
2022/01/11 03:06:13;;;;;;;58.70;27.58;;;;;;;-0.81;100.00;102981.47;4935750;29;20047;-85
2022/01/11 03:08:42;;;;;;;61.88;28.55;;;;;;;-0.88;100.00;102969.44;4937355;29;20577;-85
2022/01/11 03:11:10;;;;;;;57.38;26.60;;;;;;;-1.08;100.00;102942.13;4937315;29;20055;-85
2022/01/11 03:13:38;;;;;;;58.58;27.48;;;;;;;-1.34;100.00;102908.13;4937478;29;20059;-85
2022/01/11 03:16:04;;;;;;;61.38;29.02;;;;;;;-1.30;100.00;102920.28;4951799;28;20528;-85
2022/01/11 03:18:30;;;;;;;52.55;26.35;;;;;;;-1.15;100.00;102946.06;4951982;28;20476;-85
2022/01/11 03:20:56;;;;;;;53.25;26.10;;;;;;;-1.04;100.00;102968.59;4952215;28;20043;-85
2022/01/11 03:23:21;;;;;;;54.72;25.50;;;;;;;-0.98;100.00;102984.22;4934650;29;20433;-84
2022/01/11 03:25:49;;;;;;;52.92;26.15;;;;;;;-1.13;100.00;102961.97;4937019;29;20036;-85
2022/01/11 03:28:15;;;;;;;53.78;26.23;;;;;;;-0.99;100.00;102996.69;4935841;29;20060;-85
2022/01/11 03:30:41;;;;;;;57.50;27.30;;;;;;;-1.02;100.00;102980.84;4936831;29;20496;-85
2022/01/11 03:33:08;;;;;;;59.45;26.80;;;;;;;-1.02;100.00;102967.53;4951751;29;20040;-85
2022/01/11 03:35:34;;;;;;;53.90;25.75;;;;;;;-1.04;100.00;102964.09;4920145;29;20059;-85
2022/01/11 03:38:00;;;;;;;58.85;27.75;;;;;;;-1.11;100.00;102947.63;4936919;29;20532;-85
2022/01/11 03:40:27;;;;;;;55.08;28.17;;;;;;;-0.94;100.00;102977.78;4936622;29;20074;-85
2022/01/11 03:42:53;;;;;;;58.30;27.88;;;;;;;-1.17;100.00;102955.94;4935003;29;20039;-85
2022/01/11 03:45:22;;;;;;;53.92;26.60;;;;;;;-1.06;100.00;102969.53;4919666;29;20403;-85
2022/01/11 03:47:50;;;;;;;61.42;27.80;;;;;;;-1.18;100.00;102951.59;4936915;29;20465;-85
2022/01/11 03:50:16;;;;;;;53.47;26.52;;;;;;;-1.22;100.00;102939.38;4935493;29;20032;-85
2022/01/11 03:52:43;;;;;;;53.38;25.65;;;;;;;-1.09;100.00;102968.84;4935464;29;20040;-85
2022/01/11 03:55:15;;;;;;;56.20;26.25;;;;;;;-1.17;100.00;102969.25;4936714;29;20035;-85
2022/01/11 03:57:46;;;;;;;52.17;26.33;;;;;;;-1.61;100.00;102895.38;4936539;29;20028;-84
2022/01/11 04:00:17;;;;;;;51.63;26.67;;;;;;;-1.24;100.00;102958.09;4966853;28;20469;-84
2022/01/11 04:02:43;;;;;;;51.53;24.38;;;;;;;-1.38;100.00;102936.72;4936277;29;20480;-84
2022/01/11 04:05:11;;;;;;;49.08;22.98;;;;;;;-1.51;100.00;102935.66;4967128;28;20039;-84
2022/01/11 04:07:37;;;;;;;50.72;25.33;;;;;;;-1.59;100.00;102931.63;4934963;29;20484;-85
2022/01/11 04:10:08;;;;;;;55.42;26.10;;;;;;;-1.33;100.00;102973.72;4935086;29;20051;-85
2022/01/11 04:12:33;;;;;;;48.88;24.23;;;;;;;-1.31;100.00;102988.69;4936129;29;20394;-85
2022/01/11 04:15:01;;;;;;;49.20;25.10;;;;;;;-1.45;100.00;102965.50;4950690;28;20072;-84
2022/01/11 04:17:27;;;;;;;49.63;26.20;;;;;;;-1.62;100.00;102949.59;4934443;29;20101;-85
2022/01/11 04:19:52;;;;;;;54.10;26.40;;;;;;;-1.33;100.00;102993.25;4934367;29;20543;-84
2022/01/11 04:22:19;;;;;;;53.20;25.48;;;;;;;-1.39;100.00;102990.91;4934998;29;20062;-85
2022/01/11 04:24:44;;;;;;;55.15;25.90;;;;;;;-1.47;100.00;102971.84;4934928;29;20408;-85
2022/01/11 04:27:10;;;;;;;57.47;26.15;;;;;;;-1.41;100.00;102983.00;4934789;29;20028;-85
2022/01/11 04:29:38;;;;;;;54.83;27.05;;;;;;;-1.39;100.00;102992.72;4934724;29;20046;-85
2022/01/11 04:32:05;;;;;;;54.72;26.92;;;;;;;-1.36;100.00;102998.72;4918906;29;20039;-85
2022/01/11 04:34:33;;;;;;;53.45;25.88;;;;;;;-1.47;100.00;102991.34;4933809;29;20039;-84
2022/01/11 04:36:59;;;;;;;53.53;27.23;;;;;;;-1.30;100.00;103019.72;4918819;29;20059;-85
2022/01/11 04:39:24;;;;;;;52.63;26.88;;;;;;;-1.54;100.00;102978.44;4918763;29;20073;-84
2022/01/11 04:41:51;;;;;;;56.72;27.95;;;;;;;-1.24;100.00;103026.50;4935669;29;20472;-84
2022/01/11 04:44:16;;;;;;;53.30;26.83;;;;;;;-1.34;100.00;102996.84;4934537;29;20126;-84
2022/01/11 04:46:42;;;;;;;54.03;27.02;;;;;;;-1.32;100.00;103004.75;4935472;29;20036;-84
2022/01/11 04:49:11;;;;;;;50.03;25.75;;;;;;;-1.39;100.00;102988.25;4934414;29;20481;-84
2022/01/11 04:51:36;;;;;;;50.28;25.52;;;;;;;-1.70;100.00;102944.66;4935342;29;20042;-85
2022/01/11 04:54:02;;;;;;;54.05;26.23;;;;;;;-1.28;100.00;103007.16;4934342;29;20039;-85
2022/01/11 04:56:28;;;;;;;51.38;25.27;;;;;;;-1.29;100.00;103015.25;4935564;29;20384;-86
2022/01/11 04:58:54;;;;;;;50.25;25.58;;;;;;;-1.33;100.00;103019.00;4950104;28;20028;-85
2022/01/11 05:01:19;;;;;;;49.53;25.63;;;;;;;-1.38;100.00;103011.28;4934241;29;20039;-85
2022/01/11 05:03:45;;;;;;;56.13;27.35;;;;;;;-1.54;100.00;102986.44;4933910;29;20028;-85
2022/01/11 05:06:11;;;;;;;47.65;25.65;;;;;;;-1.48;100.00;103000.25;4902638;29;20404;-85
2022/01/11 05:08:36;;;;;;;50.35;26.58;;;;;;;-2.05;100.00;102919.94;4965371;28;20042;-84
2022/01/11 05:11:02;;;;;;;52.60;26.13;;;;;;;-1.77;100.00;102968.09;4934119;29;20028;-85
2022/01/11 05:13:31;;;;;;;54.00;26.30;;;;;;;-1.91;100.00;102941.38;4917825;29;20402;-85
2022/01/11 05:15:59;;;;;;;56.92;27.52;;;;;;;-1.78;100.00;102976.16;4935103;29;20477;-85
2022/01/11 05:18:27;;;;;;;54.42;28.35;;;;;;;-2.13;100.00;102920.38;4935360;29;20031;-85
2022/01/11 05:20:52;;;;;;;61.03;28.92;;;;;;;-1.92;100.00;102952.94;4935200;29;20524;-85
2022/01/11 05:23:20;;;;;;;61.30;27.70;;;;;;;-1.72;100.00;102982.97;4933962;29;20163;-85
2022/01/11 05:25:45;;;;;;;56.42;28.48;;;;;;;-1.90;100.00;102961.72;4949201;28;20473;-85
2022/01/11 05:28:11;;;;;;;61.78;29.10;;;;;;;-1.86;100.00;102971.25;4933935;29;20032;-85
2022/01/11 05:30:36;;;;;;;65.38;30.17;;;;;;;-1.91;100.00;102956.47;4933731;29;20028;-84
2022/01/11 05:33:03;;;;;;;64.65;28.75;;;;;;;-1.75;100.00;102978.66;4934931;29;20032;-85
2022/01/11 05:35:28;;;;;;;66.38;29.83;;;;;;;-1.79;100.00;102985.97;4935529;29;20123;-85
2022/01/11 05:37:54;;;;;;;69.10;30.98;;;;;;;-1.81;100.00;102994.97;4966234;28;20162;-85
2022/01/11 05:40:22;;;;;;;70.25;29.83;;;;;;;-1.81;100.00;102998.47;4917843;29;20385;-85
2022/01/11 05:42:51;;;;;;;63.83;28.65;;;;;;;-1.79;100.00;102998.38;4933494;29;20035;-85
2022/01/11 05:45:20;;;;;;;63.53;30.08;;;;;;;-1.94;100.00;102979.63;4933909;29;20106;-85
2022/01/11 05:47:48;;;;;;;65.47;30.40;;;;;;;-2.06;100.00;102959.00;4935826;29;20040;-85
2022/01/11 05:50:14;;;;;;;62.72;30.33;;;;;;;-1.96;100.00;102986.84;4938703;29;20447;-85
2022/01/11 05:52:42;;;;;;;66.18;29.38;;;;;;;-1.93;100.00;102991.16;4937370;29;20036;-85
2022/01/11 05:55:09;;;;;;;61.90;28.17;;;;;;;-2.17;100.00;102945.41;4937642;29;20043;-84
2022/01/11 05:57:35;;;;;;;62.05;28.23;;;;;;;-2.02;100.00;102979.19;4937426;29;20098;-84
2022/01/11 06:00:06;;;;;;;62.45;28.45;;;;;;;-2.09;100.00;102969.81;4921438;29;20032;-84
2022/01/11 06:02:34;;;;;;;62.58;28.10;;;;;;;-2.07;100.00;102970.56;4937469;29;20103;-84
2022/01/11 06:05:00;;;;;;;67.03;30.00;;;;;;;-1.85;100.00;103023.53;4937292;29;20040;-84
2022/01/11 06:07:28;;;;;;;62.67;27.83;;;;;;;-2.13;100.00;102981.53;4936920;29;20105;-84
2022/01/11 06:09:57;;;;;;;63.42;29.15;;;;;;;-1.94;100.00;103026.69;4937299;29;20122;-84
2022/01/11 06:12:28;;;;;;;63.35;27.83;;;;;;;-1.87;100.00;103036.06;4938221;29;20048;-84
2022/01/11 06:14:56;;;;;;;59.75;27.77;;;;;;;-1.87;100.00;103043.19;4938491;29;20530;-84
2022/01/11 06:17:22;;;;;;;63.17;29.02;;;;;;;-2.12;100.00;103012.53;4938001;29;20040;-84
2022/01/11 06:19:47;;;;;;;63.65;28.58;;;;;;;-1.88;100.00;103047.63;4936677;29;20491;-85
2022/01/11 06:22:13;;;;;;;57.45;28.05;;;;;;;-1.86;100.00;103056.41;4938512;29;20038;-85
2022/01/11 06:24:38;;;;;;;62.97;29.33;;;;;;;-2.21;100.00;103007.69;4936595;29;20043;-86
2022/01/11 06:27:04;;;;;;;61.60;28.33;;;;;;;-1.89;100.00;103064.56;4936667;29;20046;-85
2022/01/11 06:29:29;;;;;;;57.42;27.60;;;;;;;-2.22;100.00;103005.97;4937076;29;20031;-87
2022/01/11 06:31:55;;;;;;;57.55;28.75;;;;;;;-1.93;100.00;103070.97;4922162;29;20035;-86
2022/01/11 06:34:22;;;;;;;60.10;28.88;;;;;;;-2.34;100.00;103004.78;4923196;29;20072;-91
2022/01/11 06:36:47;;;;;;;54.30;26.52;;;;;;;-2.42;100.00;102993.66;4921400;29;20448;-88
2022/01/11 06:39:16;;;;;;;61.83;27.65;;;;;;;-2.40;100.00;103008.63;4937071;29;20032;-88
2022/01/11 06:41:42;;;;;;;60.22;28.00;;;;;;;-2.34;100.00;103016.28;4936658;29;20036;-87
2022/01/11 06:44:09;;;;;;;55.72;27.67;;;;;;;-2.59;100.00;102978.59;4921208;29;20424;-86
2022/01/11 06:46:35;;;;;;;55.85;27.77;;;;;;;-2.34;100.00;103034.88;4937894;29;20039;-88
2022/01/11 06:49:04;;;;;;;57.75;27.70;;;;;;;-2.12;100.00;103073.72;4920561;29;20038;-87
2022/01/11 06:51:30;;;;;;;57.70;27.02;;;;;;;-2.14;100.00;103072.91;4936316;29;20039;-88
2022/01/11 06:53:58;;;;;;;59.50;26.13;;;;;;;-2.60;100.00;103000.78;4920263;29;20044;-87
2022/01/11 06:56:26;;;;;;;60.72;27.23;;;;;;;-2.51;100.00;103014.47;4953773;28;20028;-88
2022/01/11 06:58:54;;;;;;;58.03;27.83;;;;;;;-2.12;100.00;103076.38;4935044;29;20023;-88
2022/01/11 07:01:23;;;;;;;57.55;26.45;;;;;;;-2.38;100.00;103038.63;4968800;28;20059;-88
2022/01/11 07:03:49;;;;;;;60.83;28.75;;;;;;;-2.58;100.00;102999.78;4935981;29;20179;-88
2022/01/11 07:06:14;;;;;;;61.25;27.13;;;;;;;-2.30;100.00;103054.22;4951754;28;20535;-88
2022/01/11 07:08:42;;;;;;;58.70;26.50;;;;;;;-2.31;100.00;103048.03;4904493;29;20122;-88
2022/01/11 07:11:10;;;;;;;57.90;28.02;;;;;;;-2.45;100.00;103034.59;4935514;29;20176;-88
2022/01/11 07:13:36;;;;;;;54.08;26.23;;;;;;;-2.53;100.00;103031.44;4935741;29;20106;-88
2022/01/11 07:16:02;;;;;;;56.22;26.73;;;;;;;-2.27;100.00;103056.72;4935408;29;20145;-88
2022/01/11 07:18:27;;;;;;;54.15;26.15;;;;;;;-2.18;100.00;103077.53;4904020;29;20051;-88
2022/01/11 07:20:53;;;;;;;55.90;27.98;;;;;;;-2.26;100.00;103065.56;4935157;29;20063;-88
2022/01/11 07:23:18;;;;;;;54.10;27.77;;;;;;;-2.54;100.00;103019.06;4935223;29;20059;-87
2022/01/11 07:25:49;;;;;;;52.13;24.95;;;;;;;-2.53;100.00;103023.47;4935582;29;20047;-88
2022/01/11 07:28:20;;;;;;;52.53;25.88;;;;;;;-2.54;100.00;103027.03;4905481;29;20167;-87
2022/01/11 07:30:48;;;;;;;56.53;26.90;;;;;;;-2.25;100.00;103081.44;4951426;29;20050;-86
2022/01/11 07:33:22;;;;;;;55.05;27.20;;;;;;;-2.14;100.00;103111.03;4951033;28;20523;-87
2022/01/11 07:35:48;;;;;;;53.28;26.58;;;;;;;-2.68;100.00;103022.44;4920025;29;20067;-87
2022/01/11 07:38:16;;;;;;;53.40;26.73;;;;;;;-2.09;100.00;103126.75;4935197;29;20284;-86
2022/01/11 07:40:41;;;;;;;50.72;25.13;;;;;;;-2.23;100.00;103092.88;4935452;29;20040;-87
2022/01/11 07:43:10;;;;;;;56.38;26.98;;;;;;;-2.41;100.00;103070.69;4935478;29;20123;-87
2022/01/11 07:45:46;;;;;;;51.17;25.48;;;;;;;-2.27;100.00;103087.75;4934614;29;20019;-87
2022/01/11 07:48:11;;;;;;;52.90;26.52;;;;;;;-2.20;100.00;103103.38;4937423;29;20103;-87
2022/01/11 07:50:40;;;;;;;49.92;24.73;;;;;;;-2.21;100.00;103101.63;4934988;29;20032;-87
2022/01/11 07:53:06;;;;;;;50.03;25.77;;;;;;;-2.20;100.00;103105.13;4935126;29;20416;-87
2022/01/11 07:55:32;;;;;;;52.30;26.73;;;;;;;-2.32;100.00;103082.69;4967340;28;20024;-87
2022/01/11 07:57:58;;;;;;;54.25;26.05;;;;;;;-2.52;100.00;103049.13;4934982;29;20099;-87
2022/01/11 08:00:27;;;;;;;49.15;24.60;;;;;;;-2.19;100.00;103099.75;4934934;29;20024;-88
2022/01/11 08:02:52;;;;;;;48.38;25.45;;;;;;;-2.36;100.00;103070.47;4934566;29;20032;-87
2022/01/11 08:05:18;;;;;;;51.75;25.30;;;;;;;-1.95;100.00;103134.03;4919090;29;20139;-87
2022/01/11 08:07:44;;;;;;;49.90;25.65;;;;;;;-2.01;100.00;103115.72;4935254;29;20028;-87
2022/01/11 08:10:11;;;;;;;50.20;25.17;;;;;;;-2.23;100.00;103066.28;4934514;29;20035;-87
2022/01/11 08:12:38;;;;;;;45.88;25.00;;;;;;;-1.99;100.00;103106.75;4918846;29;20420;-86
2022/01/11 08:15:07;;;;;;;46.15;24.80;;;;;;;-2.07;100.00;103086.78;4934531;29;20031;-85
2022/01/11 08:17:32;;;;;;;50.10;25.25;;;;;;;-2.21;100.00;103045.78;4935692;29;20043;-85
2022/01/11 08:19:58;;;;;;;46.13;24.27;;;;;;;-2.16;100.00;103051.72;4935518;29;20024;-85
2022/01/11 08:22:26;;;;;;;47.67;24.48;;;;;;;-1.92;100.00;103087.78;4936180;29;20039;-85
2022/01/11 08:24:54;;;;;;;45.60;23.63;;;;;;;-1.72;100.00;103116.06;4934827;29;20430;-85
2022/01/11 08:27:23;;;;;;;45.15;23.63;;;;;;;-1.65;100.00;103110.31;4918762;29;20031;-85
2022/01/11 08:29:50;;;;;;;44.65;24.98;;;;;;;-1.63;100.00;103094.28;4918475;29;20031;-86
2022/01/11 08:32:30;;;;;;;43.78;23.50;;;;;;;-1.73;100.00;103066.41;4934449;29;20031;-85
2022/01/11 08:34:56;;;;;;;44.40;22.33;;;;;;;-1.65;100.00;103054.44;4934713;29;20039;-86
2022/01/11 08:37:21;;;;;;;43.22;23.55;;;;;;;-1.56;100.00;103052.22;4916998;29;20511;-85
2022/01/11 08:39:55;;;;;;;41.22;20.77;;;;;;;-1.46;100.00;103053.44;4935702;29;20055;-85
2022/01/11 08:42:20;;;;;;;39.58;22.52;;;;;;;-0.98;100.00;103120.97;4933959;29;20031;-86
2022/01/11 08:44:49;;;;;;;37.13;21.67;;;;;;;-1.17;100.00;103075.81;4933793;29;20487;-85
2022/01/11 08:47:16;;;;;;;40.65;21.40;;;;;;;-1.08;100.00;103070.03;4934258;29;20071;-86
2022/01/11 08:50:02;;;;;;;36.58;21.42;;;;;;;-0.59;100.00;103127.75;4935677;29;20047;-85
2022/01/11 08:52:31;;;;;;;36.35;21.73;;;;;;;-0.67;100.00;103113.97;4934045;29;20059;-85
2022/01/11 08:55:02;;;;;;;36.40;20.30;;;;;;;-0.66;100.00;103101.50;4933957;29;20036;-85
2022/01/11 08:57:27;;;;;;;35.37;19.50;;;;;;;-0.66;100.00;103090.84;4934246;29;20504;-85
2022/01/11 08:59:53;;;;;;;39.28;20.58;;;;;;;-0.46;100.00;103119.03;4934275;29;20036;-86
2022/01/11 09:02:21;;;;;;;35.60;21.17;;;;;;;-0.49;100.00;103101.38;4949971;28;20532;-85
2022/01/11 09:04:48;;;;;;;37.45;20.00;;;;;;;-0.25;99.95;103127.59;4966109;28;20046;-85
2022/01/11 09:07:14;;;;;;;35.63;20.67;;;;;;;-0.64;99.84;103081.78;4954471;23;20056;-85
2022/01/11 09:09:39;;;;;;;34.83;19.77;;;;;;;-0.20;99.04;103141.56;4949891;28;20054;-86
2022/01/11 09:12:08;;;;;;;32.50;19.02;;;;;;;-0.24;98.69;103126.66;4935531;29;20051;-85
2022/01/11 09:14:34;;;;;;;34.42;19.27;;;;;;;-0.34;98.51;103109.47;4918306;29;20102;-86
2022/01/11 09:17:06;;;;;;;33.88;18.25;;;;;;;-0.47;98.89;103072.84;4933611;29;20040;-85
2022/01/11 09:19:32;;;;;;;;;;;;;;;0.10;99.43;103154.06;4918554;29;20035;-86
2022/01/11 09:21:58;;;;;;;33.95;18.80;;;;;;;-0.39;98.11;103077.72;4934545;29;19911;-86
2022/01/11 09:24:29;;;;;;;35.53;19.55;;;;;;;-0.31;97.75;103080.81;4933440;29;20042;-86
2022/01/11 09:26:59;;;;;;;32.22;18.23;;;;;;;-0.12;97.88;103091.25;4917667;29;20066;-86
2022/01/11 09:29:26;;;;;;;34.53;18.52;;;;;;;0.27;97.79;103139.72;4933246;29;20463;-86
2022/01/11 09:31:53;;;;;;;33.55;19.13;;;;;;;0.22;95.88;103110.59;4934051;29;20122;-86
2022/01/11 09:34:18;;;;;;;32.00;18.50;;;;;;;0.18;96.07;103087.72;4933735;29;20039;-86
2022/01/11 09:36:44;;;;;;;29.48;16.95;;;;;;;0.58;95.10;103135.22;4949877;28;20039;-86
2022/01/11 09:39:10;;;;;;;29.05;17.83;;;;;;;0.32;94.83;103089.56;4949461;28;20040;-86
2022/01/11 09:41:36;;;;;;;33.70;18.10;;;;;;;0.42;94.77;103088.06;4949470;28;20042;-86
2022/01/11 09:44:02;;;;;;;30.35;17.35;;;;;;;0.57;93.94;103088.06;4917843;29;20095;-86
2022/01/11 09:46:28;;;;;;;29.38;16.92;;;;;;;1.20;93.57;103186.59;4918001;29;20031;-86
2022/01/11 09:48:54;;;;;;;29.52;16.50;;;;;;;0.70;92.38;103087.19;4918012;29;20380;-87
2022/01/11 09:51:20;;;;;;;26.63;15.88;;;;;;;0.77;91.63;103098.38;4934172;29;20024;-86
2022/01/11 09:53:46;;;;;;;30.40;17.02;;;;;;;1.08;92.06;103147.25;4932997;29;20135;-86
2022/01/11 09:56:13;;;;;;;29.92;16.38;;;;;;;1.29;91.72;103181.63;4949504;29;20032;-86
2022/01/11 09:58:39;;;;;;;27.67;14.88;;;;;;;1.31;91.18;103180.53;4917463;29;20035;-86
2022/01/11 10:01:05;;;;;;;28.40;16.58;;;;;;;1.11;91.10;103149.72;4917580;29;20036;-86
2022/01/11 10:03:31;;;;;;;30.23;16.33;;;;;;;1.18;91.10;103150.19;4949677;28;20038;-86
2022/01/11 10:05:56;;;;;;;30.65;15.50;;;;;;;1.44;90.76;103171.75;4917731;29;20031;-86
2022/01/11 10:08:25;;;;;;;27.33;16.08;;;;;;;1.33;89.74;103143.00;4948999;29;20052;-86
2022/01/11 10:10:52;;;;;;;30.33;15.35;;;;;;;1.42;89.86;103145.09;4934821;29;20035;-86
2022/01/11 10:13:35;;;;;;;28.08;15.27;;;;;;;1.52;89.89;103140.88;4928932;29;20502;-85
2022/01/11 10:16:20;;;;;;;24.77;14.95;;;;;;;1.80;89.51;103175.69;4927052;29;20056;-87
2022/01/11 10:18:46;;;;;;;24.23;15.10;;;;;;;1.50;87.64;103117.84;4942836;29;20110;-87
2022/01/11 10:21:39;;;;;;;25.05;14.55;;;;;;;2.10;88.83;103191.56;4952355;28;20190;-87
2022/01/11 10:24:41;;;;;;;25.95;14.50;;;;;;;2.30;88.07;103184.84;4953876;29;20034;-87
2022/01/11 10:27:15;;;;;;;24.10;13.75;;;;;;;2.39;86.73;103181.56;4936352;29;20023;-86
2022/01/11 10:29:46;;;;;;;24.73;13.20;;;;;;;2.39;84.67;103162.81;4936425;29;20055;-88
2022/01/11 10:32:17;;;;;;;23.92;14.05;;;;;;;2.52;85.41;103172.66;4953518;29;20035;-87
2022/01/11 10:34:48;;;;;;;24.58;14.07;;;;;;;2.38;85.07;103122.72;4956588;29;20024;-87
2022/01/11 10:37:16;;;;;;;21.20;12.90;;;;;;;2.63;84.09;103157.56;4940216;29;20031;-87
2022/01/11 10:39:44;;;;;;;22.67;13.25;;;;;;;2.48;83.78;103139.00;4955516;28;20038;-87
2022/01/11 10:42:33;;;;;;;24.20;13.40;;;;;;;2.39;84.57;103117.25;4957490;28;20555;-86
2022/01/11 10:44:59;;;;;;;22.58;12.75;;;;;;;2.16;82.79;103100.06;4939718;29;20081;-87
2022/01/11 10:47:40;;;;;;;22.15;12.77;;;;;;;2.24;83.48;103113.81;4955340;28;20194;-87
2022/01/11 10:50:14;;;;;;;23.83;13.68;;;;;;;2.52;84.50;103153.91;4957093;29;20525;-87
2022/01/11 10:52:42;;;;;;;23.23;13.35;;;;;;;2.58;84.17;103148.13;4938796;29;20088;-86
2022/01/11 10:55:54;;;;;;;22.85;12.90;;;;;;;2.41;83.34;103114.47;4939278;29;20061;-87
2022/01/11 10:58:10;;;;;;;22.65;11.68;;;;;;;2.49;83.22;103120.13;4951877;29;20562;-87
2022/01/11 11:00:50;;;;;;;23.30;13.50;;;;;;;2.84;83.56;103183.84;4971646;28;20063;-87
2022/01/11 11:03:20;;;;;;;21.75;12.77;;;;;;;2.88;83.80;103165.69;4939280;29;20031;-86
2022/01/11 11:06:25;;;;;;;21.27;12.18;;;;;;;3.08;84.40;103183.09;4957767;28;20035;-96
2022/01/11 11:08:51;;;;;;;20.35;12.27;;;;;;;3.08;82.56;103180.41;4938363;29;20097;-88
2022/01/11 11:11:23;;;;;;;21.70;13.02;;;;;;;2.90;82.80;103163.78;4938844;29;20122;-87
2022/01/11 11:13:51;;;;;;;23.30;12.65;;;;;;;2.92;83.37;103154.69;4939229;29;20027;-87